Time;durP1;ratioP1;P1;durP2;ratioP2;P2;SDS_P1;SDS_P2;PMS_P1;PMS_P2;Temp;Humidity;BMP_temperature;BMP_pressure;BME280_temperature;BME280_humidity;BME280_pressure;Samples;Min_cycle;Max_cycle;Signal;HPM_P1;HPM_P2
2022/01/04 00:00:01;;;;;;;81.93;50.35;;;;;;;;;;5067953;28;20793;-45
2022/01/04 00:02:28;;;;;;;82.30;50.72;;;;;;;;;;5068456;28;20132;-45
2022/01/04 00:04:54;;;;;;;92.20;53.88;;;;;;;;;;5068144;28;20033;-45
2022/01/04 00:07:20;;;;;;;98.00;56.85;;;;;;;;;;5068437;28;20435;-46
2022/01/04 00:09:46;;;;;;;100.38;55.28;;;;;;;;;;5068299;28;20041;-48
2022/01/04 00:14:57;;;;;;;148.90;96.03;;;;;;;;;;5067966;28;20104;-45
2022/01/04 00:17:23;;;;;;;122.30;72.38;;;;;;;;;;5068366;28;20020;-46
2022/01/04 00:19:50;;;;;;;103.10;59.47;;;;;;;;;;5067908;28;20111;-46
2022/01/04 00:22:18;;;;;;;98.65;57.63;;;;;;;;;;5066791;28;20119;-49
2022/01/04 00:24:45;;;;;;;144.38;79.65;;;;;;;;;;5070907;28;20038;-44
2022/01/04 00:27:11;;;;;;;130.48;71.03;;;;;;;;;;5071450;28;20359;-45
2022/01/04 00:29:37;;;;;;;101.20;58.50;;;;;;;;;;5072039;28;20047;-46
2022/01/04 00:32:03;;;;;;;111.75;64.35;;;;;;;;;;5071907;28;20670;-45
2022/01/04 00:34:29;;;;;;;109.82;59.55;;;;;;;;;;5071789;28;20146;-45
2022/01/04 00:36:55;;;;;;;102.13;58.80;;;;;;;;;;5070574;28;20020;-46
2022/01/04 00:39:21;;;;;;;113.22;64.57;;;;;;;;;;5071232;28;20346;-44
2022/01/04 00:41:47;;;;;;;113.05;65.40;;;;;;;;;;5072235;28;20118;-46
2022/01/04 00:44:14;;;;;;;103.60;61.13;;;;;;;;;;5071460;28;20136;-46
2022/01/04 00:46:40;;;;;;;107.72;62.85;;;;;;;;;;5071835;28;20183;-47
2022/01/04 00:49:10;;;;;;;110.88;63.55;;;;;;;;;;5071159;28;20116;-46
2022/01/04 00:51:47;;;;;;;101.95;59.72;;;;;;;;;;5071081;28;20027;-45
2022/01/04 00:54:16;;;;;;;134.82;74.47;;;;;;;;;;5071105;28;20047;-52
2022/01/04 00:56:43;;;;;;;85.22;50.95;;;;;;;;;;5070574;28;20031;-45
2022/01/04 00:59:09;;;;;;;83.07;48.50;;;;;;;;;;5071066;28;20481;-49
2022/01/04 01:01:36;;;;;;;115.43;68.43;;;;;;;;;;5071072;28;20870;-47
2022/01/04 01:04:02;;;;;;;118.93;67.00;;;;;;;;;;5071013;28;20031;-52
2022/01/04 01:06:31;;;;;;;87.38;50.90;;;;;;;;;;5070931;28;20023;-46
2022/01/04 01:08:57;;;;;;;85.40;50.60;;;;;;;;;;5071026;28;20905;-45
2022/01/04 01:11:23;;;;;;;84.53;49.40;;;;;;;;;;5070831;28;20158;-51
2022/01/04 01:13:49;;;;;;;112.78;66.40;;;;;;;;;;5071032;28;20032;-46
2022/01/04 01:16:15;;;;;;;112.25;60.58;;;;;;;;;;5071369;28;20561;-48
2022/01/04 01:18:41;;;;;;;84.85;50.33;;;;;;;;;;5071167;28;20055;-47
2022/01/04 01:21:08;;;;;;;90.53;54.30;;;;;;;;;;5069891;28;20123;-46
2022/01/04 01:23:34;;;;;;;113.32;64.22;;;;;;;;;;5070910;28;20111;-48
2022/01/04 01:26:03;;;;;;;90.45;52.50;;;;;;;;;;5070685;28;20031;-50
2022/01/04 01:28:30;;;;;;;97.88;53.65;;;;;;;;;;5071047;28;20598;-46
2022/01/04 01:30:58;;;;;;;117.35;67.97;;;;;;;;;;5069845;28;20102;-47
2022/01/04 01:33:24;;;;;;;102.70;58.67;;;;;;;;;;5069090;28;20459;-45
2022/01/04 01:35:50;;;;;;;117.32;65.85;;;;;;;;;;5069834;28;20416;-47
2022/01/04 01:38:19;;;;;;;115.57;66.50;;;;;;;;;;5070142;28;20449;-48
2022/01/04 01:40:51;;;;;;;101.22;57.13;;;;;;;;;;5070361;28;20069;-51
2022/01/04 01:43:19;;;;;;;;;;;;;;;;;;5071502;28;20370;-45
2022/01/04 01:45:46;;;;;;;112.97;62.65;;;;;;;;;;5070561;28;20731;-48
2022/01/04 01:48:13;;;;;;;92.18;54.72;;;;;;;;;;5071078;28;20036;-49
2022/01/04 01:50:39;;;;;;;83.35;48.25;;;;;;;;;;5070604;28;20085;-47
2022/01/04 01:53:05;;;;;;;96.70;54.45;;;;;;;;;;5068978;28;20433;-48
2022/01/04 01:55:32;;;;;;;101.60;54.88;;;;;;;;;;5070592;28;20693;-46
2022/01/04 01:57:58;;;;;;;119.93;64.95;;;;;;;;;;5070236;28;20028;-46
2022/01/04 02:00:26;;;;;;;97.10;53.90;;;;;;;;;;5070313;28;20020;-47
2022/01/04 02:02:52;;;;;;;79.30;48.72;;;;;;;;;;5070153;28;20030;-45
2022/01/04 02:05:19;;;;;;;86.63;50.33;;;;;;;;;;5070130;28;20012;-45
2022/01/04 02:07:45;;;;;;;91.25;53.45;;;;;;;;;;5069926;28;20028;-48
2022/01/04 02:10:11;;;;;;;96.75;56.47;;;;;;;;;;5070062;28;20027;-46
2022/01/04 02:12:47;;;;;;;99.55;55.80;;;;;;;;;;5085076;27;20047;-49
2022/01/04 02:15:14;;;;;;;115.10;63.22;;;;;;;;;;5069612;28;20473;-47
2022/01/04 02:17:40;;;;;;;98.70;55.85;;;;;;;;;;5070337;28;20035;-47
2022/01/04 02:20:07;;;;;;;72.93;43.10;;;;;;;;;;5069820;28;20644;-50
2022/01/04 02:22:33;;;;;;;60.33;37.65;;;;;;;;;;5069732;28;20073;-48
2022/01/04 02:25:00;;;;;;;60.28;39.10;;;;;;;;;;5069678;28;20845;-47
2022/01/04 02:27:26;;;;;;;68.97;40.83;;;;;;;;;;5069565;28;20812;-47
2022/01/04 02:29:52;;;;;;;80.78;49.50;;;;;;;;;;5069611;28;20028;-46
2022/01/04 02:32:21;;;;;;;75.47;45.90;;;;;;;;;;5069302;28;20044;-47
2022/01/04 02:34:48;;;;;;;90.78;52.67;;;;;;;;;;5069453;28;20072;-46
2022/01/04 02:37:18;;;;;;;92.18;54.90;;;;;;;;;;5069177;28;20023;-48
2022/01/04 02:39:44;;;;;;;98.18;52.67;;;;;;;;;;5069089;28;20024;-50
2022/01/04 02:42:10;;;;;;;93.20;53.03;;;;;;;;;;5069665;28;20032;-47
2022/01/04 02:44:36;;;;;;;85.78;51.45;;;;;;;;;;5069692;28;20024;-51
2022/01/04 02:47:02;;;;;;;75.30;45.22;;;;;;;;;;5068887;28;20035;-46
2022/01/04 02:49:29;;;;;;;76.72;44.00;;;;;;;;;;5069543;28;21377;-48
2022/01/04 02:51:55;;;;;;;70.78;43.25;;;;;;;;;;5069081;28;20030;-46
2022/01/04 02:54:21;;;;;;;77.05;44.20;;;;;;;;;;5069404;28;20079;-46
2022/01/04 02:56:47;;;;;;;77.20;46.05;;;;;;;;;;5068871;28;21103;-51
2022/01/04 02:59:13;;;;;;;72.55;41.33;;;;;;;;;;5069637;28;20544;-47
2022/01/04 03:01:42;;;;;;;71.05;44.20;;;;;;;;;;5068485;28;20110;-54
2022/01/04 03:04:09;;;;;;;73.70;45.10;;;;;;;;;;5069400;28;20155;-46
2022/01/04 03:06:35;;;;;;;121.85;78.68;;;;;;;;;;5069131;28;20073;-46
2022/01/04 03:09:05;;;;;;;83.65;52.88;;;;;;;;;;5068711;28;20150;-53
2022/01/04 03:11:32;;;;;;;98.32;61.53;;;;;;;;;;5068738;28;20028;-47
2022/01/04 03:13:58;;;;;;;81.60;51.60;;;;;;;;;;5069072;28;20042;-51
2022/01/04 03:16:24;;;;;;;74.70;45.38;;;;;;;;;;5069053;28;20024;-45
2022/01/04 03:19:10;;;;;;;71.20;42.88;;;;;;;;;;5068799;28;20028;-50
2022/01/04 03:21:41;;;;;;;77.10;45.30;;;;;;;;;;5068716;28;20016;-47
2022/01/04 03:24:08;;;;;;;72.78;42.97;;;;;;;;;;5068748;28;20028;-48
2022/01/04 03:26:35;;;;;;;76.70;45.10;;;;;;;;;;5069063;28;20029;-48
2022/01/04 03:29:01;;;;;;;75.00;43.67;;;;;;;;;;5068586;28;20752;-48
2022/01/04 03:31:28;;;;;;;87.03;50.58;;;;;;;;;;5068692;28;20032;-47
2022/01/04 03:33:55;;;;;;;87.90;51.65;;;;;;;;;;5095315;28;20518;-47
2022/01/04 03:36:22;;;;;;;77.43;46.15;;;;;;;;;;5113825;28;20031;-50
2022/01/04 03:38:49;;;;;;;70.97;42.17;;;;;;;;;;5113713;28;20041;-49
2022/01/04 03:41:16;;;;;;;74.90;43.83;;;;;;;;;;5114031;28;20023;-48
2022/01/04 03:43:42;;;;;;;71.57;40.55;;;;;;;;;;5113703;28;20411;-47
2022/01/04 03:46:08;;;;;;;70.72;41.10;;;;;;;;;;5113657;28;20047;-46
2022/01/04 03:48:35;;;;;;;75.07;44.15;;;;;;;;;;5113633;28;20034;-52
2022/01/04 03:51:01;;;;;;;64.72;39.10;;;;;;;;;;5113556;28;20031;-47
2022/01/04 03:53:27;;;;;;;74.15;45.22;;;;;;;;;;5113481;28;20066;-46
2022/01/04 03:55:53;;;;;;;77.22;45.67;;;;;;;;;;5113663;28;20080;-45
2022/01/04 03:58:19;;;;;;;71.93;43.97;;;;;;;;;;5114631;28;20024;-48
2022/01/04 04:00:46;;;;;;;87.50;48.40;;;;;;;;;;5117664;28;20027;-46
2022/01/04 04:03:12;;;;;;;72.20;45.58;;;;;;;;;;5117743;28;20026;-45
2022/01/04 04:05:38;;;;;;;71.30;43.55;;;;;;;;;;5117581;28;20038;-47
2022/01/04 04:08:04;;;;;;;77.53;46.10;;;;;;;;;;5117476;28;20517;-47
2022/01/04 04:10:30;;;;;;;71.00;41.15;;;;;;;;;;5117758;28;20066;-47
2022/01/04 04:12:56;;;;;;;79.22;42.47;;;;;;;;;;5117483;27;20384;-47
2022/01/04 04:15:22;;;;;;;71.30;41.22;;;;;;;;;;5117315;28;20034;-47
2022/01/04 04:17:49;;;;;;;67.70;39.47;;;;;;;;;;5117421;28;20423;-46
2022/01/04 04:20:17;;;;;;;65.15;38.80;;;;;;;;;;5117212;28;20023;-46
2022/01/04 04:22:43;;;;;;;69.57;39.78;;;;;;;;;;5117133;28;20054;-46
2022/01/04 04:25:10;;;;;;;71.63;40.00;;;;;;;;;;5117426;28;20023;-46
2022/01/04 04:27:36;;;;;;;73.20;41.05;;;;;;;;;;5116904;28;20503;-46
2022/01/04 04:30:04;;;;;;;66.25;39.50;;;;;;;;;;5117114;28;20070;-46
2022/01/04 04:32:30;;;;;;;67.75;39.88;;;;;;;;;;5117180;28;20024;-47
2022/01/04 04:34:57;;;;;;;81.18;46.67;;;;;;;;;;5116936;27;20126;-46
2022/01/04 04:37:23;;;;;;;67.38;38.95;;;;;;;;;;5117143;27;20028;-46
2022/01/04 04:39:49;;;;;;;64.55;37.95;;;;;;;;;;5117178;27;20027;-47
2022/01/04 04:42:15;;;;;;;70.57;40.75;;;;;;;;;;5116818;28;20027;-47
2022/01/04 04:44:43;;;;;;;66.07;38.78;;;;;;;;;;5117040;27;20497;-46
2022/01/04 04:47:09;;;;;;;67.35;40.10;;;;;;;;;;5116802;28;20027;-47
2022/01/04 04:49:36;;;;;;;68.38;41.03;;;;;;;;;;5116744;28;20443;-50
2022/01/04 04:52:02;;;;;;;70.18;43.10;;;;;;;;;;5116837;28;20020;-51
2022/01/04 04:54:28;;;;;;;87.55;49.60;;;;;;;;;;5116551;28;20067;-51
2022/01/04 04:56:54;;;;;;;96.32;53.25;;;;;;;;;;5116430;28;20027;-48
2022/01/04 04:59:21;;;;;;;76.35;44.72;;;;;;;;;;5116595;28;20038;-47
2022/01/04 05:01:49;;;;;;;75.63;43.70;;;;;;;;;;5116520;27;20030;-47
2022/01/04 05:04:15;;;;;;;69.85;42.00;;;;;;;;;;5116552;28;20071;-47
2022/01/04 05:06:41;;;;;;;68.15;40.20;;;;;;;;;;5116321;28;20012;-47
2022/01/04 05:09:07;;;;;;;65.60;39.88;;;;;;;;;;5115944;28;20024;-50
2022/01/04 05:11:34;;;;;;;72.60;41.47;;;;;;;;;;5115461;28;20019;-47
2022/01/04 05:14:00;;;;;;;64.00;39.28;;;;;;;;;;5116285;28;20042;-47
2022/01/04 05:16:26;;;;;;;65.88;38.63;;;;;;;;;;5116326;28;20020;-48
2022/01/04 05:18:52;;;;;;;70.20;41.72;;;;;;;;;;5116156;28;20035;-51
2022/01/04 05:21:18;;;;;;;71.45;40.80;;;;;;;;;;5116067;28;20473;-47
2022/01/04 05:23:46;;;;;;;69.95;42.75;;;;;;;;;;5116125;28;20076;-51
2022/01/04 05:26:12;;;;;;;74.03;41.50;;;;;;;;;;5116238;28;20024;-51
2022/01/04 05:28:42;;;;;;;65.20;40.13;;;;;;;;;;5116104;28;20409;-50
2022/01/04 05:31:08;;;;;;;76.43;42.97;;;;;;;;;;5116042;28;20063;-53
2022/01/04 05:33:34;;;;;;;78.72;45.70;;;;;;;;;;5115898;28;20034;-47
2022/01/04 05:36:05;;;;;;;89.47;51.40;;;;;;;;;;5115795;28;20027;-48
2022/01/04 05:38:33;;;;;;;72.50;43.55;;;;;;;;;;5116030;28;20042;-50
2022/01/04 05:40:59;;;;;;;68.85;40.00;;;;;;;;;;5115849;27;20040;-52
2022/01/04 05:43:26;;;;;;;74.05;39.88;;;;;;;;;;5116009;28;20047;-50
2022/01/04 05:45:52;;;;;;;63.63;39.28;;;;;;;;;;5115651;28;20023;-47
2022/01/04 05:48:20;;;;;;;73.90;41.28;;;;;;;;;;5115586;28;20034;-49
2022/01/04 05:50:49;;;;;;;76.20;41.67;;;;;;;;;;5115437;28;20024;-48
2022/01/04 05:53:17;;;;;;;81.50;47.10;;;;;;;;;;5115368;28;20028;-47
2022/01/04 05:55:43;;;;;;;80.97;44.05;;;;;;;;;;5115691;28;20386;-46
2022/01/04 05:58:10;;;;;;;79.07;47.03;;;;;;;;;;5115393;28;20085;-45
2022/01/04 06:00:36;;;;;;;80.25;49.15;;;;;;;;;;5115380;28;20485;-46
2022/01/04 06:03:04;;;;;;;98.38;56.90;;;;;;;;;;5115393;28;20103;-47
2022/01/04 06:05:31;;;;;;;73.20;46.05;;;;;;;;;;5115153;28;20026;-47
2022/01/04 06:07:57;;;;;;;89.43;49.95;;;;;;;;;;5115133;28;20073;-47
2022/01/04 06:10:24;;;;;;;92.22;50.35;;;;;;;;;;5115169;28;20024;-48
2022/01/04 06:15:16;;;;;;;82.90;43.97;;;;;;;;;;5115010;27;20377;-47
2022/01/04 06:17:50;;;;;;;74.82;39.38;;;;;;;;;;5115246;28;20024;-47
2022/01/04 06:20:17;;;;;;;76.30;40.03;;;;;;;;;;5114956;28;20027;-47
2022/01/04 06:22:44;;;;;;;74.97;37.00;;;;;;;;;;5114898;28;20015;-48
2022/01/04 06:25:11;;;;;;;75.28;38.10;;;;;;;;;;5114792;28;20031;-46
2022/01/04 06:27:37;;;;;;;67.40;37.10;;;;;;;;;;5114625;28;20100;-46
2022/01/04 06:30:04;;;;;;;73.65;39.70;;;;;;;;;;5114839;28;20102;-46
2022/01/04 06:32:32;;;;;;;62.03;35.10;;;;;;;;;;5114701;28;20044;-46
2022/01/04 06:34:58;;;;;;;66.25;36.35;;;;;;;;;;5114532;28;20477;-46
2022/01/04 06:37:24;;;;;;;69.55;36.13;;;;;;;;;;5114823;28;20073;-46
2022/01/04 06:39:50;;;;;;;67.82;38.92;;;;;;;;;;5114568;28;20062;-46
2022/01/04 06:42:16;;;;;;;60.70;37.88;;;;;;;;;;5114464;28;20059;-46
2022/01/04 06:44:43;;;;;;;65.25;38.05;;;;;;;;;;5114626;28;20027;-47
2022/01/04 06:47:10;;;;;;;79.47;44.63;;;;;;;;;;5114422;28;20019;-47
2022/01/04 06:49:37;;;;;;;66.05;35.58;;;;;;;;;;5114725;28;20035;-47
2022/01/04 06:52:06;;;;;;;67.72;38.70;;;;;;;;;;5114416;28;20030;-48
2022/01/04 06:54:32;;;;;;;71.20;42.90;;;;;;;;;;5114185;28;20100;-52
2022/01/04 06:56:58;;;;;;;62.50;36.92;;;;;;;;;;5114269;28;20037;-47
2022/01/04 06:59:24;;;;;;;73.18;40.75;;;;;;;;;;5114284;28;20430;-48
2022/01/04 07:01:50;;;;;;;79.10;42.53;;;;;;;;;;5114192;28;20030;-47
2022/01/04 07:04:18;;;;;;;80.97;45.28;;;;;;;;;;5114182;28;20031;-48
2022/01/04 07:06:44;;;;;;;54.40;31.15;;;;;;;;;;5114227;28;20139;-52
2022/01/04 07:09:11;;;;;;;58.65;34.58;;;;;;;;;;5114130;28;20020;-48
2022/01/04 07:11:37;;;;;;;55.17;34.67;;;;;;;;;;5114004;28;20023;-48
2022/01/04 07:14:04;;;;;;;74.70;44.55;;;;;;;;;;5113830;28;20032;-48
2022/01/04 07:16:30;;;;;;;63.28;35.90;;;;;;;;;;5114018;28;20059;-46
2022/01/04 07:18:56;;;;;;;57.28;35.65;;;;;;;;;;5114365;28;20069;-49
2022/01/04 07:21:23;;;;;;;74.57;41.30;;;;;;;;;;5114193;28;20032;-47
2022/01/04 07:23:50;;;;;;;81.60;44.20;;;;;;;;;;5113827;28;20083;-48
2022/01/04 07:26:16;;;;;;;66.53;41.05;;;;;;;;;;5114076;28;20023;-48
2022/01/04 07:28:44;;;;;;;74.80;41.85;;;;;;;;;;5113989;27;20044;-50
2022/01/04 07:31:11;;;;;;;129.13;72.50;;;;;;;;;;5113881;28;20098;-50
2022/01/04 07:33:37;;;;;;;84.60;47.65;;;;;;;;;;5111837;28;20032;-49
2022/01/04 07:36:06;;;;;;;65.60;39.60;;;;;;;;;;5113757;28;20040;-48
2022/01/04 07:38:32;;;;;;;63.80;36.85;;;;;;;;;;5113585;28;20032;-50
2022/01/04 07:40:58;;;;;;;122.55;75.07;;;;;;;;;;5113815;28;20020;-46
2022/01/04 07:43:24;;;;;;;101.65;60.78;;;;;;;;;;5112636;28;20115;-50
2022/01/04 07:45:50;;;;;;;92.85;56.17;;;;;;;;;;5113610;28;20032;-49
2022/01/04 07:48:16;;;;;;;82.35;50.90;;;;;;;;;;5113497;28;20024;-46
2022/01/04 07:50:45;;;;;;;102.10;63.03;;;;;;;;;;5113625;28;20027;-48
2022/01/04 07:53:11;;;;;;;83.15;48.45;;;;;;;;;;5113550;28;20055;-49
2022/01/04 07:55:42;;;;;;;74.82;42.30;;;;;;;;;;5113386;28;20123;-53
2022/01/04 07:58:08;;;;;;;47.47;29.70;;;;;;;;;;5113425;28;20036;-47
2022/01/04 08:00:34;;;;;;;61.60;38.17;;;;;;;;;;5113333;28;20071;-48
2022/01/04 08:03:00;;;;;;;62.22;38.55;;;;;;;;;;5113442;28;20373;-50
2022/01/04 08:05:26;;;;;;;76.05;42.65;;;;;;;;;;5113540;28;20020;-48
2022/01/04 08:07:52;;;;;;;90.47;54.80;;;;;;;;;;5113424;28;20023;-49
2022/01/04 08:10:19;;;;;;;111.25;65.45;;;;;;;;;;5113462;28;20088;-47
2022/01/04 08:12:45;;;;;;;71.20;43.20;;;;;;;;;;5113478;28;20443;-48
2022/01/04 08:15:12;;;;;;;86.63;50.50;;;;;;;;;;5113318;28;20079;-49
2022/01/04 08:17:39;;;;;;;90.35;51.70;;;;;;;;;;5113237;28;20016;-50
2022/01/04 08:20:06;;;;;;;132.77;80.07;;;;;;;;;;5113238;28;20020;-46
2022/01/04 08:22:32;;;;;;;104.50;61.55;;;;;;;;;;5113283;28;20024;-48
2022/01/04 08:25:03;;;;;;;118.82;67.93;;;;;;;;;;5113223;28;20028;-47
2022/01/04 08:27:29;;;;;;;87.20;50.83;;;;;;;;;;5112892;28;20118;-46
2022/01/04 08:29:56;;;;;;;101.07;55.85;;;;;;;;;;5113152;28;20096;-46
2022/01/04 08:32:22;;;;;;;87.13;49.03;;;;;;;;;;5113076;28;20481;-46
2022/01/04 08:34:48;;;;;;;90.00;50.58;;;;;;;;;;5113013;28;20497;-49
2022/01/04 08:37:15;;;;;;;99.75;55.38;;;;;;;;;;5113270;28;20019;-47
2022/01/04 08:39:41;;;;;;;124.45;70.10;;;;;;;;;;5113168;28;20023;-47
2022/01/04 08:42:07;;;;;;;131.75;74.30;;;;;;;;;;5096794;28;20032;-46
2022/01/04 08:44:36;;;;;;;114.18;59.05;;;;;;;;;;5093448;28;20017;-48
2022/01/04 08:47:02;;;;;;;144.48;69.25;;;;;;;;;;5094464;28;20458;-46
2022/01/04 08:49:30;;;;;;;104.88;45.65;;;;;;;;;;5095643;28;20355;-44
2022/01/04 08:51:56;;;;;;;100.22;45.42;;;;;;;;;;5095887;28;20019;-46
2022/01/04 08:54:22;;;;;;;89.43;40.75;;;;;;;;;;5095476;28;20054;-46
2022/01/04 08:56:48;;;;;;;80.65;40.75;;;;;;;;;;5095602;28;20147;-45
2022/01/04 08:59:14;;;;;;;76.82;38.10;;;;;;;;;;5095634;28;20031;-46
2022/01/04 09:01:41;;;;;;;118.45;55.25;;;;;;;;;;5095527;28;20482;-45
2022/01/04 09:04:07;;;;;;;138.32;65.38;;;;;;;;;;5095516;28;20389;-46
2022/01/04 09:06:34;;;;;;;82.30;45.55;;;;;;;;;;5095734;28;20016;-45
2022/01/04 09:09:00;;;;;;;96.45;55.50;;;;;;;;;;5095424;28;20097;-46
2022/01/04 09:11:27;;;;;;;68.78;38.65;;;;;;;;;;5095556;28;20020;-46
2022/01/04 09:19:20;;;;;;;41.63;25.60;;;;;;;;;;5094858;28;20028;-47
2022/01/04 09:21:49;;;;;;;50.95;29.30;;;;;;;;;;5095621;28;20024;-48
2022/01/04 09:24:15;;;;;;;37.00;24.88;;;;;;;;;;5095161;28;20036;-44
2022/01/04 09:26:41;;;;;;;36.78;23.73;;;;;;;;;;5095498;28;20511;-44
2022/01/04 09:29:07;;;;;;;41.45;22.33;;;;;;;;;;5094613;28;20055;-47
2022/01/04 09:31:34;;;;;;;33.83;19.92;;;;;;;;;;5095102;28;20107;-48
2022/01/04 09:34:01;;;;;;;36.50;22.38;;;;;;;;;;5094954;28;20031;-51
2022/01/04 09:36:40;;;;;;;42.00;24.30;;;;;;;;;;5094926;28;20020;-48
2022/01/04 09:39:16;;;;;;;48.78;24.38;;;;;;;;;;5092570;28;20036;-48
2022/01/04 09:41:42;;;;;;;42.67;24.08;;;;;;;;;;5094783;28;20020;-47
2022/01/04 09:44:09;;;;;;;38.03;21.83;;;;;;;;;;5095067;28;20089;-47
2022/01/04 09:46:37;;;;;;;33.15;20.75;;;;;;;;;;5094588;28;20023;-46
2022/01/04 09:49:04;;;;;;;30.98;20.58;;;;;;;;;;5091990;28;20055;-48
2022/01/04 09:51:30;;;;;;;22.13;15.88;;;;;;;;;;5094576;28;20024;-47
2022/01/04 09:53:56;;;;;;;25.17;14.35;;;;;;;;;;5094551;28;20024;-47
2022/01/04 09:56:23;;;;;;;22.33;14.02;;;;;;;;;;5094190;28;20043;-48
2022/01/04 09:58:51;;;;;;;19.15;13.35;;;;;;;;;;5094408;28;20020;-52
2022/01/04 10:01:22;;;;;;;23.70;13.95;;;;;;;;;;5094364;28;20057;-49
2022/01/04 10:03:48;;;;;;;18.60;12.45;;;;;;;;;;5092297;28;20023;-46
2022/01/04 10:06:15;;;;;;;13.75;10.70;;;;;;;;;;5094355;28;20486;-50
2022/01/04 10:08:55;;;;;;;14.98;11.20;;;;;;;;;;5094091;28;20032;-48
2022/01/04 10:11:31;;;;;;;14.73;10.90;;;;;;;;;;5094197;28;20016;-53
2022/01/04 10:13:58;;;;;;;21.42;15.02;;;;;;;;;;5094140;28;20016;-47
2022/01/04 10:16:25;;;;;;;27.08;16.67;;;;;;;;;;5091398;28;20481;-48
2022/01/04 10:18:51;;;;;;;20.20;13.07;;;;;;;;;;5094263;28;20024;-46
2022/01/04 10:21:18;;;;;;;11.43;9.45;;;;;;;;;;5094055;28;20103;-47
2022/01/04 10:23:46;;;;;;;14.82;11.98;;;;;;;;;;5091230;28;20028;-52
2022/01/04 10:26:12;;;;;;;21.77;13.82;;;;;;;;;;5094012;28;20036;-50
2022/01/04 10:28:42;;;;;;;15.68;11.48;;;;;;;;;;5093842;28;20048;-53
2022/01/04 10:31:26;;;;;;;18.55;13.20;;;;;;;;;;5091824;28;20506;-50
2022/01/04 10:33:54;;;;;;;17.88;11.02;;;;;;;;;;5092285;28;20016;-51
2022/01/04 10:36:21;;;;;;;17.58;10.32;;;;;;;;;;5093588;28;20115;-48
2022/01/04 10:38:48;;;;;;;18.65;13.07;;;;;;;;;;5094185;28;20023;-47
2022/01/04 10:41:21;;;;;;;27.80;16.85;;;;;;;;;;5094272;28;20031;-48
2022/01/04 10:43:47;;;;;;;16.10;8.75;;;;;;;;;;5094355;28;20382;-49
2022/01/04 10:46:14;;;;;;;13.75;9.10;;;;;;;;;;5093727;28;20441;-48
2022/01/04 10:48:41;;;;;;;15.63;9.88;;;;;;;;;;5093760;28;20026;-47
2022/01/04 10:51:09;;;;;;;16.50;11.18;;;;;;;;;;5093448;28;20074;-47
2022/01/04 10:53:39;;;;;;;43.90;21.95;;;;;;;;;;5093443;28;20855;-47
2022/01/04 10:56:07;;;;;;;13.40;8.43;;;;;;;;;;5093175;28;20039;-48
2022/01/04 10:58:37;;;;;;;25.35;14.07;;;;;;;;;;5093154;28;20028;-48
2022/01/04 11:01:05;;;;;;;28.20;16.05;;;;;;;;;;5093697;28;20607;-51
2022/01/04 11:03:33;;;;;;;39.90;20.63;;;;;;;;;;5093804;28;20107;-47
2022/01/04 11:06:01;;;;;;;39.20;19.98;;;;;;;;;;5093671;28;20031;-48
2022/01/04 11:08:28;;;;;;;23.40;13.05;;;;;;;;;;5092964;28;20030;-45
2022/01/04 11:10:55;;;;;;;25.58;12.90;;;;;;;;;;5093673;28;20078;-48
2022/01/04 11:13:21;;;;;;;33.63;16.55;;;;;;;;;;5093618;28;20022;-46
2022/01/04 11:15:47;;;;;;;31.15;15.82;;;;;;;;;;5093493;28;20509;-47
2022/01/04 11:18:13;;;;;;;27.27;12.60;;;;;;;;;;5093520;28;20078;-47
2022/01/04 11:20:41;;;;;;;29.17;14.93;;;;;;;;;;5093416;28;20024;-47
2022/01/04 11:23:08;;;;;;;18.70;10.60;;;;;;;;;;5093405;28;20070;-50
2022/01/04 11:25:34;;;;;;;31.65;15.55;;;;;;;;;;5093636;28;20024;-51
2022/01/04 11:28:01;;;;;;;23.40;11.90;;;;;;;;;;5093131;28;20046;-47
2022/01/04 11:30:27;;;;;;;23.65;12.07;;;;;;;;;;5093486;28;20024;-48
2022/01/04 11:32:58;;;;;;;19.02;10.85;;;;;;;;;;5093468;28;20024;-46
2022/01/04 11:35:26;;;;;;;19.33;10.77;;;;;;;;;;5093149;28;20047;-47
2022/01/04 11:37:56;;;;;;;20.45;11.43;;;;;;;;;;5093507;28;20054;-47
2022/01/04 11:40:23;;;;;;;14.18;7.80;;;;;;;;;;5093304;28;20447;-48
2022/01/04 11:42:49;;;;;;;16.52;8.27;;;;;;;;;;5093155;28;20081;-46
2022/01/04 11:45:18;;;;;;;16.75;8.88;;;;;;;;;;5093247;28;20039;-46
2022/01/04 11:47:48;;;;;;;20.08;10.15;;;;;;;;;;5093210;28;20377;-46
2022/01/04 11:50:21;;;;;;;18.23;8.40;;;;;;;;;;5093147;28;20036;-46
2022/01/04 11:52:47;;;;;;;17.25;7.70;;;;;;;;;;5093215;28;20024;-45
2022/01/04 11:55:16;;;;;;;13.48;7.75;;;;;;;;;;5093038;28;20111;-45
2022/01/04 11:57:44;;;;;;;20.70;8.75;;;;;;;;;;5092947;28;20077;-45
2022/01/04 12:00:12;;;;;;;21.90;11.20;;;;;;;;;;5093101;28;20047;-46
2022/01/04 12:02:41;;;;;;;20.13;10.25;;;;;;;;;;5093606;28;20486;-45
2022/01/04 12:05:24;;;;;;;19.48;9.35;;;;;;;;;;5093336;28;20035;-48
2022/01/04 12:07:51;;;;;;;16.58;8.85;;;;;;;;;;5093146;28;20404;-49
2022/01/04 12:10:20;;;;;;;18.73;9.38;;;;;;;;;;5092895;28;20028;-48
2022/01/04 12:13:05;;;;;;;17.75;8.60;;;;;;;;;;5092940;28;20020;-48
2022/01/04 12:15:34;;;;;;;12.27;7.57;;;;;;;;;;5092996;28;20489;-46
2022/01/04 12:18:03;;;;;;;11.82;7.63;;;;;;;;;;5092911;28;20031;-47
2022/01/04 12:20:50;;;;;;;18.92;9.43;;;;;;;;;;5094552;28;20111;-45
2022/01/04 12:23:33;;;;;;;30.73;15.00;;;;;;;;;;5096884;28;20032;-45
2022/01/04 12:28:31;;;;;;;21.65;12.82;;;;;;;;;;5096622;28;20048;-45
2022/01/04 12:31:24;;;;;;;25.63;12.65;;;;;;;;;;5095586;28;20016;-50
2022/01/04 12:33:51;;;;;;;18.92;10.77;;;;;;;;;;5096695;28;20492;-45
2022/01/04 12:36:45;;;;;;;18.65;10.70;;;;;;;;;;5096495;28;20042;-45
2022/01/04 12:39:12;;;;;;;24.10;12.95;;;;;;;;;;5096017;28;20036;-46
2022/01/04 12:41:39;;;;;;;19.00;10.73;;;;;;;;;;5096661;28;20429;-45
2022/01/04 12:44:06;;;;;;;27.48;14.90;;;;;;;;;;5096788;28;20020;-46
2022/01/04 12:46:34;;;;;;;31.85;16.30;;;;;;;;;;5096496;28;20331;-46
2022/01/04 12:49:01;;;;;;;23.13;13.32;;;;;;;;;;5096391;28;20091;-45
2022/01/04 12:51:32;;;;;;;31.27;14.50;;;;;;;;;;5096574;28;20442;-45
2022/01/04 12:53:59;;;;;;;43.75;19.58;;;;;;;;;;5096428;28;20481;-46
2022/01/04 12:56:25;;;;;;;31.25;16.58;;;;;;;;;;5096470;28;20064;-46
2022/01/04 12:58:51;;;;;;;27.30;13.85;;;;;;;;;;5096362;28;20099;-46
2022/01/04 13:01:26;;;;;;;36.25;16.95;;;;;;;;;;5095315;28;20115;-46
2022/01/04 13:03:53;;;;;;;24.02;12.15;;;;;;;;;;5096224;28;20052;-46
2022/01/04 13:06:21;;;;;;;19.15;11.05;;;;;;;;;;5096452;28;20032;-45
2022/01/04 13:09:06;;;;;;;21.75;12.20;;;;;;;;;;5096172;28;20028;-45
2022/01/04 13:11:32;;;;;;;24.67;12.85;;;;;;;;;;5096189;28;20107;-46
2022/01/04 13:14:04;;;;;;;24.88;11.85;;;;;;;;;;5095934;28;20020;-46
2022/01/04 13:16:31;;;;;;;11.63;7.82;;;;;;;;;;5096108;28;20513;-45
2022/01/04 13:19:32;;;;;;;14.50;8.90;;;;;;;;;;5096048;28;20067;-48
2022/01/04 13:22:00;;;;;;;22.73;12.38;;;;;;;;;;5053680;28;20028;-44
2022/01/04 13:24:40;;;;;;;24.35;11.93;;;;;;;;;;5053411;28;20044;-45
2022/01/04 13:27:24;;;;;;;27.38;13.82;;;;;;;;;;5053039;28;20037;-45
2022/01/04 13:29:53;;;;;;;28.70;15.25;;;;;;;;;;5053393;28;20089;-46
2022/01/04 13:32:42;;;;;;;29.92;16.80;;;;;;;;;;5052421;28;20029;-46
2022/01/04 13:35:09;;;;;;;22.83;15.07;;;;;;;;;;4993829;28;20053;-47
2022/01/04 13:37:38;;;;;;;33.40;18.08;;;;;;;;;;4994199;28;20040;-46
2022/01/04 13:40:06;;;;;;;29.30;17.58;;;;;;;;;;4993969;28;20041;-47
2022/01/04 13:42:38;;;;;;;23.33;14.23;;;;;;;;;;4993827;28;20064;-47
2022/01/04 13:45:08;;;;;;;30.10;16.38;;;;;;;;;;4993683;28;20041;-44
2022/01/04 13:47:45;;;;;;;24.17;14.80;;;;;;;;;;4993504;28;20038;-45
2022/01/04 13:50:13;;;;;;;25.60;14.68;;;;;;;;;;4993658;28;20038;-44
2022/01/04 13:52:39;;;;;;;22.95;13.18;;;;;;;;;;4977485;28;20512;-44
2022/01/04 13:55:05;;;;;;;23.15;13.60;;;;;;;;;;4995975;28;20046;-45
2022/01/04 13:57:32;;;;;;;22.50;14.23;;;;;;;;;;5012953;28;20448;-46
2022/01/04 13:59:58;;;;;;;28.73;15.85;;;;;;;;;;5013086;28;20080;-47
2022/01/04 14:02:28;;;;;;;31.50;19.20;;;;;;;;;;5012955;28;20022;-47
2022/01/04 14:05:19;;;;;;;30.70;18.25;;;;;;;;;;5013045;28;20037;-50
2022/01/04 14:07:58;;;;;;;41.08;24.35;;;;;;;;;;5013088;28;20030;-48
2022/01/04 14:10:44;;;;;;;36.63;21.65;;;;;;;;;;5012854;28;20066;-46
2022/01/04 14:13:28;;;;;;;32.13;19.63;;;;;;;;;;5085991;28;20039;-48
2022/01/04 14:16:15;;;;;;;37.83;21.27;;;;;;;;;;5094636;28;20497;-48
2022/01/04 14:19:17;;;;;;;39.72;21.45;;;;;;;;;;5094797;28;20032;-44
2022/01/04 14:22:06;;;;;;;39.53;23.13;;;;;;;;;;5072455;28;20029;-44
2022/01/04 14:24:35;;;;;;;30.25;17.73;;;;;;;;;;5012479;28;20046;-46
2022/01/04 14:27:19;;;;;;;48.00;28.77;;;;;;;;;;5012124;28;20420;-46
2022/01/04 14:29:50;;;;;;;46.78;26.38;;;;;;;;;;5012417;28;20158;-46
2022/01/04 14:32:29;;;;;;;45.55;25.17;;;;;;;;;;5012394;28;20022;-46
2022/01/04 14:34:56;;;;;;;44.35;24.67;;;;;;;;;;5012385;28;20050;-48